CWHN

Jimmy Lake Airport

Jimmy Lake, Canada
METAR CWHN 130600Z AUTO 22003KT 160V260 9SM BKN052 M06/M09 A3014 RMK SLP250
Observed Flight Rules
Nov-13 @ 06:00 UTC (57 minutes ago) Visual Flight Rules
Wind Visibility Clouds
220° at 3 knots 9 miles
  • Broken at 5,200' AGL
Temperatures Readings
Current -6°C / 21°F
Dewpoint -9°C / 16°F
Humidity 80%
Altimeter 30.14" Hg
Pressure 1025 hPa
Elevation 636
METAR CWHN 130600Z AUTO 22003KT 160V260 9SM BKN052 M06/M09 A3014 RMK SLP250
Observed Flight Rules
Nov-13 @ 06:00 UTC
(57 minutes ago)
VFR
Wind Visibility
220° at 3 knots 9 miles
Clouds
  • Broken at 5,200' AGL
Temperature Dewpoint
-6°C / 21°F -9°C / 16°F
Humidity Altimeter Pressure
80% 30.14" Hg 1025 hPa